sensor_id;sensor_type;location;lat;lon;timestamp;pressure;altitude;pressure_sealevel;temperature;humidity
8573;BME280;4324;42.012;24.872;2022-10-16T00:02:14;99630.09;;;12.71;68.14
8573;BME280;4324;42.012;24.872;2022-10-16T00:04:41;99631.44;;;12.67;68.29
8573;BME280;4324;42.012;24.872;2022-10-16T00:07:08;99624.78;;;12.63;68.49
8573;BME280;4324;42.012;24.872;2022-10-16T00:09:35;99631.09;;;12.62;68.50
8573;BME280;4324;42.012;24.872;2022-10-16T00:12:02;99632.25;;;12.59;68.44
8573;BME280;4324;42.012;24.872;2022-10-16T00:14:31;99627.59;;;12.53;68.46
8573;BME280;4324;42.012;24.872;2022-10-16T00:16:58;99639.06;;;12.53;68.56
8573;BME280;4324;42.012;24.872;2022-10-16T00:19:25;99629.41;;;12.52;68.53
8573;BME280;4324;42.012;24.872;2022-10-16T00:21:52;99629.59;;;12.51;68.56
8573;BME280;4324;42.012;24.872;2022-10-16T00:24:18;99623.91;;;12.46;68.13
8573;BME280;4324;42.012;24.872;2022-10-16T00:26:49;99621.75;;;12.41;68.19
8573;BME280;4324;42.012;24.872;2022-10-16T00:29:16;99620.09;;;12.40;68.59
8573;BME280;4324;42.012;24.872;2022-10-16T00:31:46;99617.75;;;12.37;68.83
8573;BME280;4324;42.012;24.872;2022-10-16T00:34:13;99614.63;;;12.42;68.76
8573;BME280;4324;42.012;24.872;2022-10-16T00:36:40;99614.09;;;12.38;68.68
8573;BME280;4324;42.012;24.872;2022-10-16T00:39:07;99621.09;;;12.39;68.23
8573;BME280;4324;42.012;24.872;2022-10-16T00:41:34;99622.41;;;12.35;68.66
8573;BME280;4324;42.012;24.872;2022-10-16T00:44:02;99633.69;;;12.37;69.02
8573;BME280;4324;42.012;24.872;2022-10-16T00:46:35;99632.88;;;12.37;69.02
8573;BME280;4324;42.012;24.872;2022-10-16T00:49:09;99625.72;;;12.29;69.00
8573;BME280;4324;42.012;24.872;2022-10-16T00:51:38;99633.69;;;12.29;69.05
8573;BME280;4324;42.012;24.872;2022-10-16T00:54:08;99625.00;;;12.19;69.09
8573;BME280;4324;42.012;24.872;2022-10-16T00:56:37;99615.88;;;12.13;69.64
8573;BME280;4324;42.012;24.872;2022-10-16T00:59:06;99648.09;;;12.26;69.47
8573;BME280;4324;42.012;24.872;2022-10-16T01:01:36;99648.28;;;12.25;69.20
8573;BME280;4324;42.012;24.872;2022-10-16T01:04:04;99647.59;;;12.23;69.01
8573;BME280;4324;42.012;24.872;2022-10-16T01:06:37;99644.94;;;12.23;69.38
8573;BME280;4324;42.012;24.872;2022-10-16T01:09:12;99654.91;;;12.21;69.16
8573;BME280;4324;42.012;24.872;2022-10-16T01:11:45;99653.06;;;12.21;69.04
8573;BME280;4324;42.012;24.872;2022-10-16T01:14:20;99658.22;;;12.23;68.88
8573;BME280;4324;42.012;24.872;2022-10-16T01:16:53;99657.06;;;12.25;68.78
8573;BME280;4324;42.012;24.872;2022-10-16T01:19:39;99664.88;;;12.27;69.14
8573;BME280;4324;42.012;24.872;2022-10-16T01:22:09;99662.38;;;12.25;69.26
8573;BME280;4324;42.012;24.872;2022-10-16T01:24:40;99667.88;;;12.32;69.49
8573;BME280;4324;42.012;24.872;2022-10-16T01:27:13;99676.50;;;12.34;69.45
8573;BME280;4324;42.012;24.872;2022-10-16T01:29:48;99649.09;;;12.25;69.88
8573;BME280;4324;42.012;24.872;2022-10-16T01:32:22;99673.22;;;12.40;69.83
8573;BME280;4324;42.012;24.872;2022-10-16T01:34:53;99677.72;;;12.48;69.99
8573;BME280;4324;42.012;24.872;2022-10-16T01:37:29;99662.78;;;12.47;69.69
8573;BME280;4324;42.012;24.872;2022-10-16T01:40:00;99670.94;;;12.53;69.67
8573;BME280;4324;42.012;24.872;2022-10-16T01:42:34;99665.63;;;12.53;69.65
8573;BME280;4324;42.012;24.872;2022-10-16T01:45:05;99681.72;;;12.60;69.61
8573;BME280;4324;42.012;24.872;2022-10-16T01:47:35;99638.00;;;12.30;69.73
8573;BME280;4324;42.012;24.872;2022-10-16T01:50:04;99679.25;;;12.67;69.38
8573;BME280;4324;42.012;24.872;2022-10-16T01:52:35;99680.59;;;12.71;69.29
8573;BME280;4324;42.012;24.872;2022-10-16T01:55:05;99678.75;;;12.71;69.58
8573;BME280;4324;42.012;24.872;2022-10-16T01:57:36;99687.09;;;12.76;69.60
8573;BME280;4324;42.012;24.872;2022-10-16T02:00:07;99688.94;;;12.84;69.63
8573;BME280;4324;42.012;24.872;2022-10-16T02:02:35;99656.03;;;12.69;69.04
8573;BME280;4324;42.012;24.872;2022-10-16T02:05:06;99675.47;;;12.77;69.24
8573;BME280;4324;42.012;24.872;2022-10-16T02:07:36;99683.44;;;12.86;69.35
8573;BME280;4324;42.012;24.872;2022-10-16T02:10:03;99690.44;;;12.95;69.51
8573;BME280;4324;42.012;24.872;2022-10-16T02:12:33;99683.13;;;12.97;69.13
8573;BME280;4324;42.012;24.872;2022-10-16T02:15:02;99684.47;;;12.93;69.07
8573;BME280;4324;42.012;24.872;2022-10-16T02:17:29;99668.31;;;12.78;68.89
8573;BME280;4324;42.012;24.872;2022-10-16T02:19:56;99697.44;;;12.96;68.96
8573;BME280;4324;42.012;24.872;2022-10-16T02:22:27;99693.25;;;12.93;68.74
8573;BME280;4324;42.012;24.872;2022-10-16T02:24:59;99683.63;;;12.92;68.31
8573;BME280;4324;42.012;24.872;2022-10-16T02:27:33;99696.09;;;12.92;67.81
8573;BME280;4324;42.012;24.872;2022-10-16T02:30:07;99659.00;;;12.66;67.82
8573;BME280;4324;42.012;24.872;2022-10-16T02:32:37;99591.84;;;12.23;67.85
8573;BME280;4324;42.012;24.872;2022-10-16T02:35:06;99701.06;;;12.87;68.04
8573;BME280;4324;42.012;24.872;2022-10-16T02:37:34;99709.53;;;12.90;67.74
8573;BME280;4324;42.012;24.872;2022-10-16T02:40:03;99692.25;;;12.78;67.66
8573;BME280;4324;42.012;24.872;2022-10-16T02:42:34;99703.88;;;12.85;67.61
8573;BME280;4324;42.012;24.872;2022-10-16T02:45:03;99700.72;;;12.81;67.88
8573;BME280;4324;42.012;24.872;2022-10-16T02:47:30;99712.53;;;12.87;67.70
8573;BME280;4324;42.012;24.872;2022-10-16T02:49:57;99708.88;;;12.80;67.53
8573;BME280;4324;42.012;24.872;2022-10-16T02:52:24;99688.56;;;12.71;67.67
8573;BME280;4324;42.012;24.872;2022-10-16T02:54:51;99722.66;;;12.92;67.82
8573;BME280;4324;42.012;24.872;2022-10-16T02:57:18;99707.22;;;12.87;67.98
8573;BME280;4324;42.012;24.872;2022-10-16T02:59:45;99727.50;;;12.96;67.92
8573;BME280;4324;42.012;24.872;2022-10-16T03:02:13;99700.72;;;12.81;68.02
8573;BME280;4324;42.012;24.872;2022-10-16T03:04:40;99727.34;;;12.98;67.84
8573;BME280;4324;42.012;24.872;2022-10-16T03:07:07;99731.47;;;13.00;67.94
8573;BME280;4324;42.012;24.872;2022-10-16T03:09:34;99722.03;;;12.98;68.04
8573;BME280;4324;42.012;24.872;2022-10-16T03:12:01;99711.22;;;12.99;67.84
8573;BME280;4324;42.012;24.872;2022-10-16T03:14:28;99731.84;;;13.14;67.84
8573;BME280;4324;42.012;24.872;2022-10-16T03:16:55;99731.53;;;13.17;67.71
8573;BME280;4324;42.012;24.872;2022-10-16T03:19:23;99727.69;;;13.11;67.83
8573;BME280;4324;42.012;24.872;2022-10-16T03:21:50;99740.97;;;13.19;67.89
8573;BME280;4324;42.012;24.872;2022-10-16T03:24:17;99676.97;;;12.80;67.82
8573;BME280;4324;42.012;24.872;2022-10-16T03:26:44;99731.84;;;13.22;67.77
8573;BME280;4324;42.012;24.872;2022-10-16T03:29:10;99740.84;;;13.21;67.81
8573;BME280;4324;42.012;24.872;2022-10-16T03:31:37;99734.84;;;13.19;67.77
8573;BME280;4324;42.012;24.872;2022-10-16T03:34:04;99736.84;;;13.17;68.07
8573;BME280;4324;42.012;24.872;2022-10-16T03:36:33;99741.66;;;13.13;67.79
8573;BME280;4324;42.012;24.872;2022-10-16T03:39:00;99733.81;;;13.12;67.80
8573;BME280;4324;42.012;24.872;2022-10-16T03:41:26;99726.84;;;13.02;67.52
8573;BME280;4324;42.012;24.872;2022-10-16T03:43:53;99744.78;;;13.08;67.41
8573;BME280;4324;42.012;24.872;2022-10-16T03:46:20;99702.53;;;12.73;67.28
8573;BME280;4324;42.012;24.872;2022-10-16T03:48:47;99687.88;;;12.60;67.36
8573;BME280;4324;42.012;24.872;2022-10-16T03:51:14;99730.28;;;12.78;66.53
8573;BME280;4324;42.012;24.872;2022-10-16T03:53:42;99714.28;;;12.62;66.21
8573;BME280;4324;42.012;24.872;2022-10-16T03:56:09;99745.38;;;12.70;65.81
8573;BME280;4324;42.012;24.872;2022-10-16T03:58:36;99760.28;;;12.63;66.05
8573;BME280;4324;42.012;24.872;2022-10-16T04:01:03;99748.28;;;12.42;65.98
8573;BME280;4324;42.012;24.872;2022-10-16T04:03:30;99759.66;;;12.34;65.88
8573;BME280;4324;42.012;24.872;2022-10-16T04:05:57;99758.75;;;12.18;65.96
8573;BME280;4324;42.012;24.872;2022-10-16T04:08:24;99763.72;;;12.13;66.11
8573;BME280;4324;42.012;24.872;2022-10-16T04:10:52;99762.34;;;12.08;66.48
8573;BME280;4324;42.012;24.872;2022-10-16T04:13:19;99759.03;;;12.06;66.40
8573;BME280;4324;42.012;24.872;2022-10-16T04:15:46;99759.03;;;12.06;66.33
8573;BME280;4324;42.012;24.872;2022-10-16T04:18:13;99769.19;;;12.11;66.51
8573;BME280;4324;42.012;24.872;2022-10-16T04:20:40;99723.06;;;11.86;66.49
8573;BME280;4324;42.012;24.872;2022-10-16T04:23:07;99760.16;;;12.04;66.59
8573;BME280;4324;42.012;24.872;2022-10-16T04:25:34;99755.16;;;12.01;66.58
8573;BME280;4324;42.012;24.872;2022-10-16T04:28:02;99758.00;;;11.99;65.96
8573;BME280;4324;42.012;24.872;2022-10-16T04:30:29;99746.28;;;11.84;66.08
8573;BME280;4324;42.012;24.872;2022-10-16T04:32:56;99775.19;;;11.87;66.33
8573;BME280;4324;42.012;24.872;2022-10-16T04:35:23;99772.75;;;11.76;66.11
8573;BME280;4324;42.012;24.872;2022-10-16T04:37:50;99777.66;;;11.71;66.75
8573;BME280;4324;42.012;24.872;2022-10-16T04:40:17;99769.88;;;11.51;66.46
8573;BME280;4324;42.012;24.872;2022-10-16T04:42:44;99790.50;;;11.57;66.66
8573;BME280;4324;42.012;24.872;2022-10-16T04:45:12;99788.38;;;11.43;67.58
8573;BME280;4324;42.012;24.872;2022-10-16T04:47:39;99786.50;;;11.35;67.64
8573;BME280;4324;42.012;24.872;2022-10-16T04:50:08;99793.28;;;11.38;67.57
8573;BME280;4324;42.012;24.872;2022-10-16T04:52:36;99776.56;;;11.20;67.64
8573;BME280;4324;42.012;24.872;2022-10-16T04:55:03;99795.97;;;11.20;67.21
8573;BME280;4324;42.012;24.872;2022-10-16T04:57:30;99786.72;;;11.06;67.64
8573;BME280;4324;42.012;24.872;2022-10-16T04:59:59;99788.06;;;11.10;67.76
8573;BME280;4324;42.012;24.872;2022-10-16T05:02:27;99774.56;;;11.04;67.63
8573;BME280;4324;42.012;24.872;2022-10-16T05:04:54;99771.25;;;11.02;67.79
8573;BME280;4324;42.012;24.872;2022-10-16T05:07:21;99766.09;;;11.00;67.86
8573;BME280;4324;42.012;24.872;2022-10-16T05:09:48;99795.03;;;11.11;67.88
8573;BME280;4324;42.012;24.872;2022-10-16T05:12:15;99795.56;;;11.15;67.98
8573;BME280;4324;42.012;24.872;2022-10-16T05:14:42;99787.03;;;11.21;68.50
8573;BME280;4324;42.012;24.872;2022-10-16T05:17:08;99748.91;;;11.04;67.93
8573;BME280;4324;42.012;24.872;2022-10-16T05:19:37;99799.34;;;11.30;67.49
8573;BME280;4324;42.012;24.872;2022-10-16T05:22:04;99783.38;;;11.22;67.15
8573;BME280;4324;42.012;24.872;2022-10-16T05:24:31;99798.44;;;11.22;67.44
8573;BME280;4324;42.012;24.872;2022-10-16T05:26:57;99805.81;;;11.28;68.05
8573;BME280;4324;42.012;24.872;2022-10-16T05:29:24;99811.13;;;11.28;68.08
8573;BME280;4324;42.012;24.872;2022-10-16T05:31:52;99807.09;;;11.24;68.02
8573;BME280;4324;42.012;24.872;2022-10-16T05:34:20;99809.59;;;11.25;68.06
8573;BME280;4324;42.012;24.872;2022-10-16T05:36:48;99821.72;;;11.28;68.11
8573;BME280;4324;42.012;24.872;2022-10-16T05:39:15;99740.63;;;10.72;68.43
8573;BME280;4324;42.012;24.872;2022-10-16T05:41:42;99833.41;;;11.35;68.30
8573;BME280;4324;42.012;24.872;2022-10-16T05:44:09;99828.09;;;11.35;68.40
8573;BME280;4324;42.012;24.872;2022-10-16T05:46:36;99834.66;;;11.31;68.28
8573;BME280;4324;42.012;24.872;2022-10-16T05:49:03;99834.00;;;11.29;68.73
8573;BME280;4324;42.012;24.872;2022-10-16T05:51:30;99846.25;;;11.30;69.41
8573;BME280;4324;42.012;24.872;2022-10-16T05:53:59;99849.59;;;11.32;69.53
8573;BME280;4324;42.012;24.872;2022-10-16T05:56:26;99844.88;;;11.26;69.37
8573;BME280;4324;42.012;24.872;2022-10-16T05:58:53;99852.91;;;11.34;69.64
8573;BME280;4324;42.012;24.872;2022-10-16T06:01:19;99852.38;;;11.30;69.04
8573;BME280;4324;42.012;24.872;2022-10-16T06:03:49;99843.91;;;11.27;69.55
8573;BME280;4324;42.012;24.872;2022-10-16T06:06:17;99852.25;;;11.32;69.08
8573;BME280;4324;42.012;24.872;2022-10-16T06:08:47;99852.38;;;11.30;68.96
8573;BME280;4324;42.012;24.872;2022-10-16T06:11:17;99847.31;;;11.37;68.37
8573;BME280;4324;42.012;24.872;2022-10-16T06:13:44;99852.56;;;11.47;69.00
8573;BME280;4324;42.012;24.872;2022-10-16T06:16:13;99845.91;;;11.43;68.94
8573;BME280;4324;42.012;24.872;2022-10-16T06:18:39;99857.47;;;11.59;68.36
8573;BME280;4324;42.012;24.872;2022-10-16T06:21:08;99866.81;;;11.63;68.60
8573;BME280;4324;42.012;24.872;2022-10-16T06:23:35;99845.22;;;11.58;69.56
8573;BME280;4324;42.012;24.872;2022-10-16T06:26:07;99870.91;;;11.76;69.40
8573;BME280;4324;42.012;24.872;2022-10-16T06:28:36;99847.63;;;11.70;70.39
8573;BME280;4324;42.012;24.872;2022-10-16T06:31:04;99856.94;;;11.74;70.21
8573;BME280;4324;42.012;24.872;2022-10-16T06:33:31;99871.00;;;11.84;70.24
8573;BME280;4324;42.012;24.872;2022-10-16T06:36:02;99874.84;;;11.90;70.33
8573;BME280;4324;42.012;24.872;2022-10-16T06:38:29;99883.75;;;11.98;70.49
8573;BME280;4324;42.012;24.872;2022-10-16T06:40:56;99863.13;;;11.92;70.23
8573;BME280;4324;42.012;24.872;2022-10-16T06:43:23;99893.66;;;12.14;69.84
8573;BME280;4324;42.012;24.872;2022-10-16T06:45:52;99901.84;;;12.21;69.83
8573;BME280;4324;42.012;24.872;2022-10-16T06:48:19;99897.72;;;12.26;70.13
8573;BME280;4324;42.012;24.872;2022-10-16T06:50:55;99900.00;;;12.21;70.22
8573;BME280;4324;42.012;24.872;2022-10-16T06:53:23;99917.22;;;12.35;70.00
8573;BME280;4324;42.012;24.872;2022-10-16T06:55:50;99918.56;;;12.39;69.91
8573;BME280;4324;42.012;24.872;2022-10-16T06:58:17;99900.81;;;12.40;70.21
8573;BME280;4324;42.012;24.872;2022-10-16T07:00:44;99914.72;;;12.59;70.20
8573;BME280;4324;42.012;24.872;2022-10-16T07:03:12;99915.75;;;12.67;70.07
8573;BME280;4324;42.012;24.872;2022-10-16T07:05:40;99874.81;;;12.51;69.87
8573;BME280;4324;42.012;24.872;2022-10-16T07:08:08;99898.50;;;12.71;69.95
8573;BME280;4324;42.012;24.872;2022-10-16T07:10:35;99910.84;;;12.80;70.06
8573;BME280;4324;42.012;24.872;2022-10-16T07:13:02;99913.88;;;12.85;69.92
8573;BME280;4324;42.012;24.872;2022-10-16T07:15:29;99914.59;;;12.95;69.79
8573;BME280;4324;42.012;24.872;2022-10-16T07:17:56;99920.75;;;13.04;69.20
8573;BME280;4324;42.012;24.872;2022-10-16T07:20:25;99919.75;;;13.05;69.30
8573;BME280;4324;42.012;24.872;2022-10-16T07:22:51;99922.63;;;13.12;69.34
8573;BME280;4324;42.012;24.872;2022-10-16T07:25:18;99922.78;;;13.10;69.28
8573;BME280;4324;42.012;24.872;2022-10-16T07:27:45;99918.81;;;13.14;69.40
8573;BME280;4324;42.012;24.872;2022-10-16T07:30:12;99917.31;;;13.20;69.24
8573;BME280;4324;42.012;24.872;2022-10-16T07:32:39;99924.41;;;13.37;69.11
8573;BME280;4324;42.012;24.872;2022-10-16T07:35:07;99915.31;;;13.48;69.25
8573;BME280;4324;42.012;24.872;2022-10-16T07:37:35;99911.81;;;13.55;69.12
8573;BME280;4324;42.012;24.872;2022-10-16T07:40:02;99908.03;;;13.66;68.79
8573;BME280;4324;42.012;24.872;2022-10-16T07:42:29;99918.88;;;13.81;68.79
8573;BME280;4324;42.012;24.872;2022-10-16T07:44:56;99912.91;;;13.87;68.50
8573;BME280;4324;42.012;24.872;2022-10-16T07:47:23;99910.38;;;13.94;68.60
8573;BME280;4324;42.012;24.872;2022-10-16T07:49:50;99910.88;;;13.97;68.52
8573;BME280;4324;42.012;24.872;2022-10-16T07:52:17;99916.72;;;14.01;68.27
8573;BME280;4324;42.012;24.872;2022-10-16T07:54:45;99908.56;;;14.02;68.26
8573;BME280;4324;42.012;24.872;2022-10-16T07:57:12;99889.44;;;13.99;68.30
8573;BME280;4324;42.012;24.872;2022-10-16T07:59:44;99908.38;;;14.12;68.29
8573;BME280;4324;42.012;24.872;2022-10-16T08:02:12;99912.72;;;14.21;68.22
8573;BME280;4324;42.012;24.872;2022-10-16T08:04:38;99914.56;;;14.21;68.18
8573;BME280;4324;42.012;24.872;2022-10-16T08:07:06;99913.75;;;14.20;68.02
8573;BME280;4324;42.012;24.872;2022-10-16T08:09:34;99910.91;;;14.22;68.20
8573;BME280;4324;42.012;24.872;2022-10-16T08:12:02;99919.53;;;14.40;67.90
8573;BME280;4324;42.012;24.872;2022-10-16T08:14:29;99907.88;;;14.41;67.88
8573;BME280;4324;42.012;24.872;2022-10-16T08:16:56;99882.91;;;14.34;67.62
8573;BME280;4324;42.012;24.872;2022-10-16T08:19:23;99902.91;;;14.55;67.55
8573;BME280;4324;42.012;24.872;2022-10-16T08:21:50;99892.72;;;14.58;67.20
8573;BME280;4324;42.012;24.872;2022-10-16T08:24:17;99912.50;;;14.80;67.40
8573;BME280;4324;42.012;24.872;2022-10-16T08:26:44;99884.88;;;14.73;67.27
8573;BME280;4324;42.012;24.872;2022-10-16T08:29:13;99904.13;;;14.91;66.87
8573;BME280;4324;42.012;24.872;2022-10-16T08:31:40;99907.41;;;15.01;66.66
8573;BME280;4324;42.012;24.872;2022-10-16T08:34:07;99896.75;;;15.01;66.63
8573;BME280;4324;42.012;24.872;2022-10-16T08:36:34;99901.69;;;15.13;66.23
8573;BME280;4324;42.012;24.872;2022-10-16T08:39:01;99899.84;;;15.21;66.10
8573;BME280;4324;42.012;24.872;2022-10-16T08:41:52;99895.13;;;15.32;65.89
8573;BME280;4324;42.012;24.872;2022-10-16T08:44:39;99887.06;;;15.40;65.80
8573;BME280;4324;42.012;24.872;2022-10-16T08:47:17;99900.84;;;15.52;65.54
8573;BME280;4324;42.012;24.872;2022-10-16T08:49:55;99894.97;;;15.56;65.18
8573;BME280;4324;42.012;24.872;2022-10-16T08:52:24;99901.47;;;15.62;64.88
8573;BME280;4324;42.012;24.872;2022-10-16T08:54:54;99871.50;;;15.52;64.91
8573;BME280;4324;42.012;24.872;2022-10-16T08:57:24;99895.19;;;15.78;64.56
8573;BME280;4324;42.012;24.872;2022-10-16T08:59:54;99896.97;;;15.85;64.37
8573;BME280;4324;42.012;24.872;2022-10-16T09:02:31;99893.28;;;15.86;64.06
8573;BME280;4324;42.012;24.872;2022-10-16T09:05:05;99893.97;;;15.88;63.73
8573;BME280;4324;42.012;24.872;2022-10-16T09:07:44;99896.56;;;15.96;63.66
8573;BME280;4324;42.012;24.872;2022-10-16T09:10:25;99900.19;;;16.04;63.07
8573;BME280;4324;42.012;24.872;2022-10-16T09:13:00;99885.25;;;15.94;63.57
8573;BME280;4324;42.012;24.872;2022-10-16T09:15:34;99900.66;;;16.07;62.83
8573;BME280;4324;42.012;24.872;2022-10-16T09:18:10;99904.09;;;16.16;62.60
8573;BME280;4324;42.012;24.872;2022-10-16T09:20:45;99909.19;;;16.26;62.51
8573;BME280;4324;42.012;24.872;2022-10-16T09:23:18;99919.25;;;16.38;62.22
8573;BME280;4324;42.012;24.872;2022-10-16T09:25:46;99893.25;;;16.32;61.51
8573;BME280;4324;42.012;24.872;2022-10-16T09:28:15;99891.56;;;16.31;61.34
8573;BME280;4324;42.012;24.872;2022-10-16T09:30:44;99906.91;;;16.37;61.07
8573;BME280;4324;42.012;24.872;2022-10-16T09:33:14;99899.00;;;16.44;61.05
8573;BME280;4324;42.012;24.872;2022-10-16T09:35:43;99895.50;;;16.43;61.05
8573;BME280;4324;42.012;24.872;2022-10-16T09:38:22;99898.53;;;16.55;60.19
8573;BME280;4324;42.012;24.872;2022-10-16T09:40:49;99897.06;;;16.53;58.02
8573;BME280;4324;42.012;24.872;2022-10-16T09:43:22;99883.97;;;16.43;57.93
8573;BME280;4324;42.012;24.872;2022-10-16T09:45:57;99893.38;;;16.54;58.21
8573;BME280;4324;42.012;24.872;2022-10-16T09:48:27;99892.00;;;16.58;58.16
8573;BME280;4324;42.012;24.872;2022-10-16T09:50:56;99886.00;;;16.56;57.95
8573;BME280;4324;42.012;24.872;2022-10-16T09:53:23;99880.56;;;16.64;57.97
8573;BME280;4324;42.012;24.872;2022-10-16T09:55:51;99887.03;;;16.69;58.00
8573;BME280;4324;42.012;24.872;2022-10-16T09:58:21;99820.75;;;16.35;57.25
8573;BME280;4324;42.012;24.872;2022-10-16T10:00:49;99859.16;;;16.64;57.31
8573;BME280;4324;42.012;24.872;2022-10-16T10:03:33;99866.75;;;16.75;57.36
8573;BME280;4324;42.012;24.872;2022-10-16T10:06:06;99857.25;;;16.73;56.90
8573;BME280;4324;42.012;24.872;2022-10-16T10:08:41;99866.50;;;16.85;56.91
8573;BME280;4324;42.012;24.872;2022-10-16T10:11:08;99871.28;;;16.89;56.61
8573;BME280;4324;42.012;24.872;2022-10-16T10:13:35;99869.44;;;16.90;56.46
8573;BME280;4324;42.012;24.872;2022-10-16T10:16:02;99864.53;;;16.93;56.52
8573;BME280;4324;42.012;24.872;2022-10-16T10:18:30;99864.19;;;16.97;56.63
8573;BME280;4324;42.012;24.872;2022-10-16T10:20:58;99858.81;;;16.97;55.97
8573;BME280;4324;42.012;24.872;2022-10-16T10:23:26;99862.97;;;16.99;56.02
8573;BME280;4324;42.012;24.872;2022-10-16T10:25:59;99846.38;;;16.89;56.21
8573;BME280;4324;42.012;24.872;2022-10-16T10:28:45;99860.84;;;17.09;55.72
8573;BME280;4324;42.012;24.872;2022-10-16T10:31:17;99857.31;;;17.09;55.50
8573;BME280;4324;42.012;24.872;2022-10-16T10:33:54;99869.03;;;17.23;55.48
8573;BME280;4324;42.012;24.872;2022-10-16T10:36:31;99843.44;;;17.20;55.58
8573;BME280;4324;42.012;24.872;2022-10-16T10:39:00;99847.69;;;17.29;54.77
8573;BME280;4324;42.012;24.872;2022-10-16T10:44:37;99845.19;;;17.28;54.47
8573;BME280;4324;42.012;24.872;2022-10-16T10:47:17;99844.00;;;17.30;54.64
8573;BME280;4324;42.012;24.872;2022-10-16T10:49:58;99834.47;;;17.28;54.48
8573;BME280;4324;42.012;24.872;2022-10-16T10:52:38;99831.44;;;17.31;54.30
8573;BME280;4324;42.012;24.872;2022-10-16T10:55:17;99823.47;;;17.37;54.43
8573;BME280;4324;42.012;24.872;2022-10-16T10:57:56;99823.56;;;17.44;54.35
8573;BME280;4324;42.012;24.872;2022-10-16T11:00:31;99829.22;;;17.56;53.89
8573;BME280;4324;42.012;24.872;2022-10-16T11:03:16;99791.78;;;17.41;53.80
8573;BME280;4324;42.012;24.872;2022-10-16T11:05:50;99834.91;;;17.67;53.34
8573;BME280;4324;42.012;24.872;2022-10-16T11:08:21;99822.31;;;17.68;53.54
8573;BME280;4324;42.012;24.872;2022-10-16T11:10:54;99822.16;;;17.70;53.79
8573;BME280;4324;42.012;24.872;2022-10-16T11:13:30;99809.75;;;17.69;53.44
8573;BME280;4324;42.012;24.872;2022-10-16T11:16:01;99819.16;;;17.79;53.31
8573;BME280;4324;42.012;24.872;2022-10-16T11:18:37;99812.41;;;17.83;53.23
8573;BME280;4324;42.012;24.872;2022-10-16T11:21:08;99811.44;;;17.91;53.11
8573;BME280;4324;42.012;24.872;2022-10-16T11:23:40;99778.22;;;17.85;52.91
8573;BME280;4324;42.012;24.872;2022-10-16T11:26:14;99806.84;;;18.06;53.01
8573;BME280;4324;42.012;24.872;2022-10-16T11:28:45;99796.66;;;18.02;52.89
8573;BME280;4324;42.012;24.872;2022-10-16T11:31:19;99807.13;;;18.18;52.69
8573;BME280;4324;42.012;24.872;2022-10-16T11:33:54;99809.16;;;18.16;52.87
8573;BME280;4324;42.012;24.872;2022-10-16T11:36:33;99803.16;;;18.14;52.64
8573;BME280;4324;42.012;24.872;2022-10-16T11:39:09;99808.53;;;18.14;52.69
8573;BME280;4324;42.012;24.872;2022-10-16T11:41:44;99808.16;;;18.17;52.38
8573;BME280;4324;42.012;24.872;2022-10-16T11:44:32;99804.81;;;18.15;51.93
8573;BME280;4324;42.012;24.872;2022-10-16T11:47:06;99805.47;;;18.17;51.77
8573;BME280;4324;42.012;24.872;2022-10-16T11:49:36;99779.31;;;17.98;51.85
8573;BME280;4324;42.012;24.872;2022-10-16T11:52:12;99815.94;;;18.12;51.12
8573;BME280;4324;42.012;24.872;2022-10-16T11:54:46;99806.41;;;18.09;51.12
8573;BME280;4324;42.012;24.872;2022-10-16T11:57:17;99801.06;;;18.09;51.51
8573;BME280;4324;42.012;24.872;2022-10-16T11:59:48;99786.84;;;18.09;51.76
8573;BME280;4324;42.012;24.872;2022-10-16T12:02:37;99797.88;;;18.27;51.33
8573;BME280;4324;42.012;24.872;2022-10-16T12:05:15;99805.78;;;18.35;51.55
8573;BME280;4324;42.012;24.872;2022-10-16T12:07:53;99800.44;;;18.35;51.70
8573;BME280;4324;42.012;24.872;2022-10-16T12:10:25;99785.50;;;18.26;51.73
8573;BME280;4324;42.012;24.872;2022-10-16T12:12:53;99811.38;;;18.41;51.29
8573;BME280;4324;42.012;24.872;2022-10-16T12:15:24;99804.38;;;18.40;50.62
8573;BME280;4324;42.012;24.872;2022-10-16T12:17:52;99809.31;;;18.43;50.69
8573;BME280;4324;42.012;24.872;2022-10-16T12:20:27;99798.38;;;18.37;50.17
8573;BME280;4324;42.012;24.872;2022-10-16T12:23:02;99810.34;;;18.42;50.24
8573;BME280;4324;42.012;24.872;2022-10-16T12:25:32;99793.38;;;18.34;49.40
8573;BME280;4324;42.012;24.872;2022-10-16T12:28:02;99818.00;;;18.45;49.15
8573;BME280;4324;42.012;24.872;2022-10-16T12:30:32;99786.50;;;18.19;49.18
8573;BME280;4324;42.012;24.872;2022-10-16T12:33:01;99821.88;;;18.35;49.05
8573;BME280;4324;42.012;24.872;2022-10-16T12:35:30;99821.03;;;18.35;49.07
8573;BME280;4324;42.012;24.872;2022-10-16T12:38:15;99819.00;;;18.37;49.34
8573;BME280;4324;42.012;24.872;2022-10-16T12:40:44;99818.22;;;18.43;49.07
8573;BME280;4324;42.012;24.872;2022-10-16T12:43:34;99822.78;;;18.49;49.02
8573;BME280;4324;42.012;24.872;2022-10-16T12:46:05;99822.38;;;18.52;49.29
8573;BME280;4324;42.012;24.872;2022-10-16T12:48:33;99824.25;;;18.52;48.69
8573;BME280;4324;42.012;24.872;2022-10-16T12:51:10;99816.59;;;18.49;48.38
8573;BME280;4324;42.012;24.872;2022-10-16T12:53:39;99825.06;;;18.52;48.54
8573;BME280;4324;42.012;24.872;2022-10-16T12:56:14;99828.19;;;18.56;48.52
8573;BME280;4324;42.012;24.872;2022-10-16T12:58:58;99809.78;;;18.53;48.54
8573;BME280;4324;42.012;24.872;2022-10-16T13:01:35;99824.06;;;18.60;48.16
8573;BME280;4324;42.012;24.872;2022-10-16T13:04:17;99816.19;;;18.52;48.14
8573;BME280;4324;42.012;24.872;2022-10-16T13:06:53;99831.91;;;18.55;47.95
8573;BME280;4324;42.012;24.872;2022-10-16T13:09:40;99826.72;;;18.53;47.91
8573;BME280;4324;42.012;24.872;2022-10-16T13:12:21;99835.78;;;18.52;48.05
8573;BME280;4324;42.012;24.872;2022-10-16T13:15:11;99831.91;;;18.55;47.79
8573;BME280;4324;42.012;24.872;2022-10-16T13:17:50;99815.13;;;18.46;47.84
8573;BME280;4324;42.012;24.872;2022-10-16T13:20:28;99831.25;;;18.53;48.02
8573;BME280;4324;42.012;24.872;2022-10-16T13:23:05;99828.34;;;18.48;47.87
8573;BME280;4324;42.012;24.872;2022-10-16T13:25:45;99837.66;;;18.52;47.70
8573;BME280;4324;42.012;24.872;2022-10-16T13:28:14;99821.06;;;18.42;47.79
8573;BME280;4324;42.012;24.872;2022-10-16T13:30:43;99815.09;;;18.40;48.03